createdAt,value
2022-12-18T00:00:04.132Z,90.28
2022-12-18T00:01:04.103Z,90.28
2022-12-18T00:02:04.237Z,90.71
2022-12-18T00:03:04.216Z,91.13
2022-12-18T00:04:04.262Z,91.20
2022-12-18T00:05:04.086Z,91.30
2022-12-18T00:06:04.072Z,91.30
2022-12-18T00:07:04.033Z,91.20
2022-12-18T00:08:04.038Z,91.20
2022-12-18T00:09:04.046Z,91.20
2022-12-18T00:10:04.022Z,91.05
2022-12-18T00:11:10.583Z,90.95
2022-12-18T00:13:08.230Z,90.62
2022-12-18T00:14:04.014Z,90.42
2022-12-18T00:15:03.998Z,90.42
2022-12-18T00:16:04.012Z,90.31
2022-12-18T00:17:04.003Z,90.10
2022-12-18T00:18:03.957Z,89.89
2022-12-18T00:19:03.917Z,89.78
2022-12-18T00:20:03.908Z,89.57
2022-12-18T00:21:03.910Z,89.57
2022-12-18T00:22:03.906Z,89.36
2022-12-18T00:23:03.872Z,89.14
2022-12-18T00:24:03.880Z,89.04
2022-12-18T00:25:03.874Z,89.18
2022-12-18T00:26:03.864Z,89.50
2022-12-18T00:27:03.842Z,89.72
2022-12-18T00:28:03.822Z,89.82
2022-12-18T00:29:03.811Z,89.93
2022-12-18T00:30:03.833Z,89.82
2022-12-18T00:31:10.424Z,89.61
2022-12-18T00:32:03.890Z,89.61
2022-12-18T00:33:03.798Z,89.50
2022-12-18T00:34:03.774Z,89.61
2022-12-18T00:35:03.763Z,89.61
2022-12-18T00:36:03.750Z,89.40
2022-12-18T00:37:03.739Z,89.29
2022-12-18T00:38:03.736Z,89.08
2022-12-18T00:39:03.706Z,89.08
2022-12-18T00:40:03.723Z,89.08
2022-12-18T00:41:03.700Z,89.18
2022-12-18T00:42:03.720Z,89.18
2022-12-18T00:43:03.655Z,89.08
2022-12-18T00:44:03.656Z,89.29
2022-12-18T00:45:07.637Z,89.40
2022-12-18T00:46:03.710Z,89.61
2022-12-18T00:47:03.620Z,89.72
2022-12-18T00:48:03.686Z,89.50
2022-12-18T00:49:03.621Z,89.29
2022-12-18T00:50:03.613Z,89.18
2022-12-18T00:51:10.135Z,88.90
2022-12-18T00:52:03.615Z,89.01
2022-12-18T00:53:03.580Z,89.54
2022-12-18T00:54:03.582Z,89.97
2022-12-18T00:55:06.408Z,90.18
2022-12-18T00:56:03.564Z,90.35
2022-12-18T00:57:03.510Z,90.56
2022-12-18T00:58:03.527Z,90.56
2022-12-18T00:59:03.499Z,90.14
2022-12-18T01:00:03.512Z,89.72
2022-12-18T01:01:03.492Z,89.29
2022-12-18T01:02:03.561Z,89.29
2022-12-18T01:03:03.489Z,88.97
2022-12-18T01:04:03.471Z,88.76
2022-12-18T01:05:03.590Z,88.65
2022-12-18T01:06:03.445Z,88.80
2022-12-18T01:07:03.421Z,89.01
2022-12-18T01:08:03.402Z,89.12
2022-12-18T01:09:03.396Z,89.22
2022-12-18T01:10:03.409Z,89.33
2022-12-18T01:11:09.995Z,89.43
2022-12-18T01:12:03.402Z,89.54
2022-12-18T01:13:03.343Z,89.75
2022-12-18T01:14:03.361Z,89.75
2022-12-18T01:15:03.321Z,89.86
2022-12-18T01:16:03.434Z,89.75
2022-12-18T01:17:03.314Z,90.08
2022-12-18T01:18:03.324Z,90.08
2022-12-18T01:19:03.353Z,89.97
2022-12-18T01:20:03.286Z,89.75
2022-12-18T01:21:03.257Z,89.43
2022-12-18T01:22:03.279Z,89.22
2022-12-18T01:23:03.240Z,89.12
2022-12-18T01:24:03.242Z,89.37
2022-12-18T01:25:03.237Z,89.86
2022-12-18T01:26:03.214Z,90.08
2022-12-18T01:27:03.194Z,90.08
2022-12-18T01:28:03.212Z,90.08
2022-12-18T01:29:03.198Z,89.86
2022-12-18T01:30:03.212Z,89.75
2022-12-18T01:31:03.185Z,89.97
2022-12-18T01:32:03.229Z,90.08
2022-12-18T01:33:03.142Z,89.97
2022-12-18T01:34:03.126Z,90.08
2022-12-18T01:35:03.120Z,90.28
2022-12-18T01:36:03.109Z,90.28
2022-12-18T01:37:03.111Z,90.08
2022-12-18T01:38:03.095Z,89.97
2022-12-18T01:39:03.100Z,89.97
2022-12-18T01:40:03.083Z,89.86
2022-12-18T01:41:03.066Z,89.86
2022-12-18T01:42:03.045Z,90.18
2022-12-18T01:43:03.035Z,90.39
2022-12-18T01:44:03.020Z,90.28
2022-12-18T01:45:03.034Z,90.39
2022-12-18T01:46:03.006Z,90.50
2022-12-18T01:47:03.013Z,90.50
2022-12-18T01:48:02.995Z,90.50
2022-12-18T01:49:03.002Z,90.28
2022-12-18T01:50:03.055Z,89.97
2022-12-18T01:51:02.962Z,89.86
2022-12-18T01:52:02.958Z,89.86
2022-12-18T01:53:02.938Z,89.97
2022-12-18T01:54:02.965Z,89.86
2022-12-18T01:55:02.926Z,90.08
2022-12-18T01:56:02.889Z,90.28
2022-12-18T01:57:02.909Z,90.39
2022-12-18T01:58:02.920Z,90.39
2022-12-18T01:59:02.872Z,90.28
2022-12-18T02:00:02.856Z,90.39
2022-12-18T02:01:02.911Z,90.28
2022-12-18T02:02:03.028Z,90.18
2022-12-18T02:03:02.935Z,90.08
2022-12-18T02:04:02.866Z,90.18
2022-12-18T02:05:02.831Z,90.18
2022-12-18T02:06:02.788Z,90.18
2022-12-18T02:07:02.801Z,90.28
2022-12-18T02:08:02.785Z,90.18
2022-12-18T02:09:03.329Z,90.08
2022-12-18T02:10:02.805Z,90.18
2022-12-18T02:11:02.765Z,90.08
2022-12-18T02:12:02.732Z,90.11
2022-12-18T02:13:02.730Z,90.01
2022-12-18T02:14:02.731Z,89.79
2022-12-18T02:15:02.719Z,89.79
2022-12-18T02:16:02.712Z,89.90
2022-12-18T02:17:02.713Z,90.28
2022-12-18T02:18:02.670Z,90.39
2022-12-18T02:19:02.678Z,90.60
2022-12-18T02:20:02.677Z,90.60
2022-12-18T02:21:02.692Z,90.60
2022-12-18T02:22:02.650Z,90.50
2022-12-18T02:23:02.641Z,90.28
2022-12-18T02:24:02.622Z,90.39
2022-12-18T02:25:02.593Z,90.25
2022-12-18T02:26:02.615Z,90.14
2022-12-18T02:27:02.583Z,90.03
2022-12-18T02:28:02.604Z,90.14
2022-12-18T02:29:02.616Z,89.93
2022-12-18T02:30:02.539Z,89.72
2022-12-18T02:31:09.178Z,89.50
2022-12-18T02:32:02.564Z,89.50
2022-12-18T02:33:02.536Z,89.50
2022-12-18T02:34:02.502Z,89.54
2022-12-18T02:35:02.524Z,89.54
2022-12-18T02:36:02.486Z,89.65
2022-12-18T02:37:02.509Z,89.65
2022-12-18T02:38:02.459Z,89.75
2022-12-18T02:39:02.476Z,89.86
2022-12-18T02:40:02.436Z,90.18
2022-12-18T02:41:02.459Z,90.25
2022-12-18T02:42:02.436Z,90.35
2022-12-18T02:43:02.413Z,90.14
2022-12-18T02:44:02.393Z,89.82
2022-12-18T02:45:02.421Z,89.50
2022-12-18T02:46:02.538Z,89.29
2022-12-18T02:47:02.396Z,89.18
2022-12-18T02:48:02.386Z,89.40
2022-12-18T02:49:02.421Z,89.50
2022-12-18T02:50:02.363Z,89.61
2022-12-18T02:51:08.924Z,89.61
2022-12-18T02:52:02.328Z,89.78
2022-12-18T02:53:02.331Z,89.67
2022-12-18T02:54:02.359Z,89.57
2022-12-18T02:55:02.294Z,89.21
2022-12-18T02:56:02.273Z,88.79
2022-12-18T02:57:02.325Z,88.57
2022-12-18T02:58:02.256Z,88.57
2022-12-18T02:59:02.254Z,88.57
2022-12-18T03:00:02.321Z,88.36
2022-12-18T03:01:02.392Z,88.36
2022-12-18T03:02:02.463Z,88.36
2022-12-18T03:03:02.362Z,88.26
2022-12-18T03:04:02.224Z,88.47
2022-12-18T03:05:02.234Z,88.26
2022-12-18T03:06:02.199Z,88.15
2022-12-18T03:07:02.216Z,88.15
2022-12-18T03:08:02.212Z,88.26
2022-12-18T03:09:02.167Z,88.40
2022-12-18T03:10:02.155Z,88.19
2022-12-18T03:11:02.120Z,87.87
2022-12-18T03:12:02.101Z,87.98
2022-12-18T03:13:03.039Z,88.29
2022-12-18T03:14:02.089Z,88.29
2022-12-18T03:15:02.103Z,88.44
2022-12-18T03:16:02.087Z,88.44
2022-12-18T03:17:02.188Z,88.76
2022-12-18T03:18:02.070Z,88.97
2022-12-18T03:19:02.053Z,89.18
2022-12-18T03:20:02.054Z,89.61
2022-12-18T03:21:08.529Z,89.61
2022-12-18T03:22:02.076Z,89.67
2022-12-18T03:23:02.022Z,89.36
2022-12-18T03:24:01.979Z,89.14
2022-12-18T03:25:01.994Z,88.93
2022-12-18T03:26:07.243Z,88.82
2022-12-18T03:27:01.988Z,88.72
2022-12-18T03:28:01.961Z,88.61
2022-12-18T03:29:01.966Z,88.61
2022-12-18T03:30:01.945Z,88.72
2022-12-18T03:31:01.992Z,88.72
2022-12-18T03:32:01.944Z,88.51
2022-12-18T03:33:01.907Z,88.61
2022-12-18T03:34:01.896Z,88.61
2022-12-18T03:35:01.890Z,88.61
2022-12-18T03:36:01.876Z,88.61
2022-12-18T03:37:01.891Z,88.61
2022-12-18T03:38:01.881Z,88.76
2022-12-18T03:39:01.852Z,88.93
2022-12-18T03:40:01.837Z,89.04
2022-12-18T03:41:01.854Z,89.04
2022-12-18T03:42:01.814Z,88.93
2022-12-18T03:43:01.816Z,88.93
2022-12-18T03:44:01.836Z,88.82
2022-12-18T03:45:01.812Z,88.72
2022-12-18T03:46:01.830Z,88.61
2022-12-18T03:47:01.756Z,88.40
2022-12-18T03:48:01.751Z,88.40
2022-12-18T03:49:01.762Z,88.51
2022-12-18T03:50:01.736Z,88.51
2022-12-18T03:51:01.722Z,88.61
2022-12-18T03:52:01.707Z,88.61
2022-12-18T03:53:01.722Z,88.61
2022-12-18T03:54:01.696Z,88.40
2022-12-18T03:55:01.700Z,88.40
2022-12-18T03:56:01.678Z,88.09
2022-12-18T03:57:01.679Z,87.98
2022-12-18T03:58:01.649Z,88.09
2022-12-18T03:59:01.627Z,87.94
2022-12-18T04:00:01.721Z,87.73
2022-12-18T04:01:01.618Z,87.62
2022-12-18T04:02:01.808Z,87.45
2022-12-18T04:03:01.570Z,87.34
2022-12-18T04:04:01.663Z,87.55
2022-12-18T04:05:01.601Z,87.66
2022-12-18T04:06:01.542Z,87.66
2022-12-18T04:07:01.558Z,87.77
2022-12-18T04:08:01.541Z,87.98
2022-12-18T04:09:01.544Z,88.23
2022-12-18T04:10:01.499Z,88.34
2022-12-18T04:11:08.004Z,88.23
2022-12-18T04:12:01.502Z,88.34
2022-12-18T04:13:01.472Z,88.55
2022-12-18T04:14:05.905Z,88.65
2022-12-18T04:15:01.465Z,88.65
2022-12-18T04:16:01.463Z,88.55
2022-12-18T04:17:01.445Z,88.51
2022-12-18T04:18:01.429Z,88.51
2022-12-18T04:19:01.433Z,88.51
2022-12-18T04:20:01.417Z,88.40
2022-12-18T04:21:01.378Z,88.19
2022-12-18T04:22:01.375Z,88.09
2022-12-18T04:23:01.366Z,88.09
2022-12-18T04:24:01.420Z,88.34
2022-12-18T04:25:01.362Z,88.34
2022-12-18T04:26:01.368Z,88.23
2022-12-18T04:27:01.337Z,88.23
2022-12-18T04:28:01.317Z,88.23
2022-12-18T04:29:01.297Z,88.44
2022-12-18T04:30:01.319Z,88.65
2022-12-18T04:31:01.367Z,88.76
2022-12-18T04:32:01.289Z,88.76
2022-12-18T04:33:01.254Z,88.65
2022-12-18T04:34:01.278Z,88.76
2022-12-18T04:35:01.249Z,88.87
2022-12-18T04:36:01.267Z,88.87
2022-12-18T04:37:01.208Z,88.97
2022-12-18T04:38:01.229Z,88.97
2022-12-18T04:39:01.187Z,88.87
2022-12-18T04:40:01.189Z,88.65
2022-12-18T04:41:01.193Z,88.55
2022-12-18T04:42:01.176Z,88.44
2022-12-18T04:43:01.216Z,88.44
2022-12-18T04:44:01.168Z,88.44
2022-12-18T04:45:01.163Z,88.40
2022-12-18T04:46:01.196Z,87.98
2022-12-18T04:47:01.146Z,87.77
2022-12-18T04:48:01.113Z,87.49
2022-12-18T04:49:01.100Z,87.38
2022-12-18T04:50:01.099Z,87.38
2022-12-18T04:51:07.643Z,87.74
2022-12-18T04:52:01.103Z,87.84
2022-12-18T04:53:01.110Z,87.74
2022-12-18T04:54:02.025Z,88.17
2022-12-18T04:55:01.102Z,88.37
2022-12-18T04:56:01.020Z,89.01
2022-12-18T04:57:01.008Z,88.87
2022-12-18T04:58:00.993Z,88.65
2022-12-18T04:59:00.989Z,88.23
2022-12-18T05:00:00.987Z,88.23
2022-12-18T05:01:01.001Z,88.12
2022-12-18T05:02:01.114Z,88.27
2022-12-18T05:03:01.001Z,88.48
2022-12-18T05:04:00.991Z,88.48
2022-12-18T05:05:00.947Z,88.37
2022-12-18T05:06:00.938Z,88.70
2022-12-18T05:07:00.908Z,88.59
2022-12-18T05:08:00.886Z,88.27
2022-12-18T05:09:00.904Z,88.31
2022-12-18T05:10:00.890Z,88.31
2022-12-18T05:11:00.869Z,88.42
2022-12-18T05:12:00.842Z,88.42
2022-12-18T05:13:00.845Z,88.63
2022-12-18T05:14:00.828Z,88.95
2022-12-18T05:15:00.830Z,88.95
2022-12-18T05:16:00.905Z,88.98
2022-12-18T05:17:01.356Z,88.98
2022-12-18T05:18:00.804Z,89.20
2022-12-18T05:19:00.788Z,89.09
2022-12-18T05:20:00.780Z,88.88
2022-12-18T05:21:00.771Z,88.88
2022-12-18T05:22:00.784Z,89.41
2022-12-18T05:23:00.755Z,89.62
2022-12-18T05:24:00.754Z,89.94
2022-12-18T05:25:00.710Z,90.16
2022-12-18T05:26:00.762Z,90.26
2022-12-18T05:27:00.691Z,90.33
2022-12-18T05:28:00.694Z,90.22
2022-12-18T05:29:00.696Z,90.33
2022-12-18T05:30:00.666Z,90.11
2022-12-18T05:31:07.297Z,89.79
2022-12-18T05:32:00.671Z,89.86
2022-12-18T05:33:00.646Z,89.97
2022-12-18T05:34:00.625Z,89.75
2022-12-18T05:35:00.609Z,89.65
2022-12-18T05:36:00.610Z,89.72
2022-12-18T05:37:00.618Z,89.18
2022-12-18T05:38:00.583Z,88.65
2022-12-18T05:39:00.587Z,88.65
2022-12-18T05:40:00.582Z,88.76
2022-12-18T05:41:00.549Z,88.76
2022-12-18T05:42:00.564Z,88.76
2022-12-18T05:43:00.527Z,88.97
2022-12-18T05:44:00.543Z,88.72
2022-12-18T05:45:00.500Z,88.44
2022-12-18T05:46:00.522Z,88.34
2022-12-18T05:47:00.606Z,88.51
2022-12-18T05:48:00.500Z,88.61
2022-12-18T05:49:00.461Z,88.44
2022-12-18T05:50:00.503Z,88.61
2022-12-18T05:51:06.958Z,88.61
2022-12-18T05:52:00.438Z,88.61
2022-12-18T05:53:00.438Z,88.40
2022-12-18T05:54:00.419Z,88.40
2022-12-18T05:55:00.430Z,88.61
2022-12-18T05:56:00.420Z,88.51
2022-12-18T05:57:00.429Z,88.72
2022-12-18T05:58:00.396Z,88.72
2022-12-18T05:59:00.375Z,88.51
2022-12-18T06:00:00.391Z,88.29
2022-12-18T06:01:00.338Z,88.40
2022-12-18T06:02:00.503Z,88.72
2022-12-18T06:03:00.473Z,88.93
2022-12-18T06:04:00.350Z,88.89
2022-12-18T06:05:00.313Z,88.68
2022-12-18T06:06:00.323Z,88.36
2022-12-18T06:07:00.273Z,88.04
2022-12-18T06:08:00.271Z,87.94
2022-12-18T06:09:00.271Z,88.15
2022-12-18T06:10:00.302Z,88.26
2022-12-18T06:11:06.759Z,88.36
2022-12-18T06:12:00.267Z,88.47
2022-12-18T06:13:00.237Z,88.15
2022-12-18T06:14:00.403Z,88.04
2022-12-18T06:15:00.213Z,88.04
2022-12-18T06:16:00.237Z,87.94
2022-12-18T06:17:00.173Z,88.04
2022-12-18T06:18:00.192Z,88.19
2022-12-18T06:19:00.176Z,88.19
2022-12-18T06:20:00.168Z,88.29
2022-12-18T06:21:00.144Z,88.19
2022-12-18T06:22:00.131Z,88.19
2022-12-18T06:23:00.159Z,88.19
2022-12-18T06:24:00.112Z,88.40
2022-12-18T06:25:00.112Z,88.29
2022-12-18T06:26:00.094Z,88.51
2022-12-18T06:27:00.132Z,88.61
2022-12-18T06:28:00.093Z,88.61
2022-12-18T06:29:00.115Z,88.61
2022-12-18T06:30:00.064Z,88.72
2022-12-18T06:31:00.050Z,89.04
2022-12-18T06:32:00.049Z,89.25
2022-12-18T06:33:00.021Z,89.25
2022-12-18T06:34:00.026Z,89.04
2022-12-18T06:35:00.020Z,88.72
2022-12-18T06:36:01.173Z,88.51
2022-12-18T06:36:59.967Z,88.72
2022-12-18T06:37:59.957Z,89.36
2022-12-18T06:38:59.947Z,89.46
2022-12-18T06:39:59.947Z,89.57
2022-12-18T06:40:59.935Z,89.46
2022-12-18T06:41:59.942Z,89.36
2022-12-18T06:42:59.916Z,89.36
2022-12-18T06:44:00.300Z,89.36
2022-12-18T06:44:59.897Z,89.25
2022-12-18T06:45:59.955Z,89.46
2022-12-18T06:46:59.854Z,89.36
2022-12-18T06:47:59.857Z,89.25
2022-12-18T06:48:59.857Z,89.14
2022-12-18T06:49:59.852Z,89.14
2022-12-18T06:50:59.814Z,89.25
2022-12-18T06:51:59.833Z,89.57
2022-12-18T06:52:59.819Z,89.78
2022-12-18T06:53:59.809Z,90.10
2022-12-18T06:54:59.781Z,90.20
2022-12-18T06:56:01.210Z,90.10
2022-12-18T06:56:59.774Z,90.10
2022-12-18T06:57:59.776Z,89.99
2022-12-18T06:58:59.789Z,89.89
2022-12-18T06:59:59.729Z,90.20
2022-12-18T07:00:59.813Z,90.62
2022-12-18T07:01:59.835Z,90.80
2022-12-18T07:02:59.706Z,90.59
2022-12-18T07:03:59.699Z,90.37
2022-12-18T07:04:59.692Z,90.27
2022-12-18T07:05:59.699Z,90.16
2022-12-18T07:06:59.670Z,89.95
2022-12-18T07:07:59.655Z,90.06
2022-12-18T07:08:59.629Z,90.12
2022-12-18T07:09:59.645Z,90.12
2022-12-18T07:10:59.631Z,89.81
2022-12-18T07:11:59.616Z,89.59
2022-12-18T07:12:59.596Z,89.45
2022-12-18T07:13:59.604Z,89.34
2022-12-18T07:14:59.569Z,89.23
2022-12-18T07:15:59.586Z,88.81
2022-12-18T07:16:59.639Z,88.18
2022-12-18T07:17:59.554Z,87.96
2022-12-18T07:18:59.531Z,87.86
2022-12-18T07:19:59.524Z,87.75
2022-12-18T07:20:59.516Z,87.65
2022-12-18T07:21:59.514Z,87.86
2022-12-18T07:22:59.509Z,88.01
2022-12-18T07:23:59.501Z,88.11
2022-12-18T07:24:59.485Z,88.11
2022-12-18T07:25:59.469Z,88.11
2022-12-18T07:26:59.454Z,88.21
2022-12-18T07:27:59.446Z,88.21
2022-12-18T07:28:59.451Z,88.53
2022-12-18T07:29:59.452Z,88.53
2022-12-18T07:30:59.435Z,88.64
2022-12-18T07:31:59.455Z,88.53
2022-12-18T07:32:59.384Z,88.32
2022-12-18T07:33:59.384Z,88.21
2022-12-18T07:34:59.383Z,88.32
2022-12-18T07:35:59.366Z,88.21
2022-12-18T07:36:59.368Z,88.32
2022-12-18T07:37:59.329Z,88.32
2022-12-18T07:38:59.346Z,88.11
2022-12-18T07:39:59.301Z,88.32
2022-12-18T07:40:59.298Z,88.53
2022-12-18T07:41:59.290Z,88.64
2022-12-18T07:42:59.298Z,88.32
2022-12-18T07:43:59.289Z,88.32
2022-12-18T07:44:59.277Z,88.49
2022-12-18T07:45:59.378Z,88.18
2022-12-18T07:46:59.250Z,88.07
2022-12-18T07:47:59.238Z,88.18
2022-12-18T07:48:59.231Z,87.86
2022-12-18T07:49:59.226Z,87.86
2022-12-18T07:50:59.209Z,87.86
2022-12-18T07:51:59.213Z,87.96
2022-12-18T07:52:59.191Z,88.07
2022-12-18T07:53:59.191Z,87.79
2022-12-18T07:54:59.160Z,87.90
2022-12-18T07:56:25.303Z,88.01
2022-12-18T07:56:59.141Z,87.79
2022-12-18T07:58:01.160Z,87.90
2022-12-18T07:58:59.146Z,87.90
2022-12-18T07:59:59.096Z,87.79
2022-12-18T08:00:59.166Z,87.79
2022-12-18T08:01:59.229Z,88.32
2022-12-18T08:02:59.230Z,88.39
2022-12-18T08:03:59.075Z,88.28
2022-12-18T08:04:59.061Z,88.07
2022-12-18T08:05:59.055Z,87.75
2022-12-18T08:06:59.045Z,87.75
2022-12-18T08:07:59.027Z,87.75
2022-12-18T08:08:59.039Z,87.75
2022-12-18T08:09:59.015Z,87.54
2022-12-18T08:10:58.980Z,87.40
2022-12-18T08:11:58.984Z,87.29
2022-12-18T08:13:04.633Z,86.87
2022-12-18T08:13:58.974Z,86.93
2022-12-18T08:14:58.959Z,86.90
2022-12-18T08:15:58.944Z,86.11
2022-12-18T08:16:58.943Z,84.81
2022-12-18T08:17:58.924Z,83.61
2022-12-18T08:18:58.932Z,83.01
2022-12-18T08:19:58.899Z,83.08
2022-12-18T08:20:58.891Z,82.48
2022-12-18T08:21:58.859Z,81.28
2022-12-18T08:22:58.859Z,79.80
2022-12-18T08:23:58.865Z,79.88
2022-12-18T08:24:58.860Z,80.93
2022-12-18T08:25:58.838Z,81.46
2022-12-18T08:27:27.751Z,81.53
2022-12-18T08:27:58.801Z,80.69
2022-12-18T08:28:58.801Z,80.69
2022-12-18T08:29:58.778Z,80.44
2022-12-18T08:31:05.441Z,79.91
2022-12-18T08:31:58.852Z,79.46
2022-12-18T08:32:58.800Z,78.72
2022-12-18T08:33:58.772Z,78.40
2022-12-18T08:34:58.733Z,78.61
2022-12-18T08:35:58.717Z,78.68
2022-12-18T08:36:58.729Z,78.47
2022-12-18T08:37:58.731Z,77.91
2022-12-18T08:38:58.694Z,77.59
2022-12-18T08:39:58.690Z,77.56
2022-12-18T08:40:58.675Z,77.10
2022-12-18T08:41:58.678Z,76.37
2022-12-18T08:42:58.669Z,76.19
2022-12-18T08:43:58.629Z,76.51
2022-12-18T08:44:58.632Z,76.37
2022-12-18T08:45:58.636Z,75.38
2022-12-18T08:46:58.619Z,74.76
2022-12-18T08:47:58.611Z,74.40
2022-12-18T08:48:58.596Z,73.85
2022-12-18T08:49:58.597Z,73.57
2022-12-18T08:50:58.582Z,73.77
2022-12-18T08:51:58.562Z,74.30
2022-12-18T08:52:58.552Z,74.19
2022-12-18T08:53:58.542Z,73.39
2022-12-18T08:54:58.527Z,72.28
2022-12-18T08:55:58.520Z,70.88
2022-12-18T08:56:58.519Z,70.98
2022-12-18T08:57:58.514Z,70.64
2022-12-18T08:58:58.501Z,69.98
2022-12-18T08:59:58.459Z,69.24
2022-12-18T09:00:58.531Z,69.14
2022-12-18T09:01:58.604Z,69.59
2022-12-18T09:02:58.594Z,69.52
2022-12-18T09:03:58.425Z,70.46
2022-12-18T09:04:58.409Z,71.20
2022-12-18T09:05:58.410Z,70.75
2022-12-18T09:06:58.388Z,70.18
2022-12-18T09:07:58.407Z,69.56
2022-12-18T09:08:58.359Z,69.53
2022-12-18T09:09:58.379Z,68.90
2022-12-18T09:11:04.903Z,68.76
2022-12-18T09:11:58.368Z,68.63
2022-12-18T09:12:58.339Z,68.63
2022-12-18T09:13:58.346Z,68.07
2022-12-18T09:14:58.303Z,67.27
2022-12-18T09:15:58.293Z,68.34
2022-12-18T09:16:58.458Z,68.90
2022-12-18T09:17:58.291Z,69.32
2022-12-18T09:18:58.284Z,69.39
2022-12-18T09:19:58.273Z,69.53
2022-12-18T09:20:58.254Z,69.63
2022-12-18T09:21:58.234Z,69.70
2022-12-18T09:22:58.212Z,69.81
2022-12-18T09:23:58.217Z,69.39
2022-12-18T09:24:58.192Z,69.81
2022-12-18T09:25:58.203Z,69.70
2022-12-18T09:26:58.307Z,70.15
2022-12-18T09:27:58.181Z,70.65
2022-12-18T09:28:58.175Z,70.61
2022-12-18T09:29:58.142Z,69.88
2022-12-18T09:30:58.166Z,69.95
2022-12-18T09:31:58.143Z,69.29
2022-12-18T09:32:58.193Z,68.74
2022-12-18T09:33:58.137Z,68.19
2022-12-18T09:34:58.088Z,67.43
2022-12-18T09:35:58.077Z,66.22
2022-12-18T09:36:58.082Z,65.11
2022-12-18T09:37:58.083Z,63.94
2022-12-18T09:38:58.068Z,63.60
2022-12-18T09:39:58.042Z,62.63
2022-12-18T09:41:04.581Z,62.71
2022-12-18T09:41:58.054Z,61.64
2022-12-18T09:42:58.022Z,61.22
2022-12-18T09:43:57.997Z,61.02
2022-12-18T09:44:58.019Z,61.55
2022-12-18T09:45:58.145Z,59.17
2022-12-18T09:46:57.978Z,59.50
2022-12-18T09:47:57.974Z,60.47
2022-12-18T09:48:57.954Z,61.19
2022-12-18T09:49:57.933Z,61.43
2022-12-18T09:50:57.919Z,60.94
2022-12-18T09:51:57.936Z,62.04
2022-12-18T09:52:57.936Z,63.21
2022-12-18T09:53:57.914Z,64.04
2022-12-18T09:54:57.890Z,64.15
2022-12-18T09:55:57.863Z,63.70
2022-12-18T09:56:57.856Z,63.29
2022-12-18T09:57:57.862Z,64.09
2022-12-18T09:58:57.861Z,63.15
2022-12-18T09:59:57.834Z,63.23
2022-12-18T10:00:57.829Z,63.43
2022-12-18T10:01:57.887Z,63.09
2022-12-18T10:02:57.980Z,61.95
2022-12-18T10:03:57.851Z,62.29
2022-12-18T10:04:57.780Z,62.53
2022-12-18T10:05:57.771Z,63.18
2022-12-18T10:06:57.733Z,64.72
2022-12-18T10:07:57.746Z,64.72
2022-12-18T10:08:57.733Z,63.67
2022-12-18T10:09:57.721Z,63.46
2022-12-18T10:10:57.703Z,63.88
2022-12-18T10:11:57.677Z,64.09
2022-12-18T10:13:04.081Z,65.34
2022-12-18T10:13:57.658Z,64.92
2022-12-18T10:14:57.651Z,63.98
2022-12-18T10:15:57.719Z,64.43
2022-12-18T10:16:57.622Z,65.47
2022-12-18T10:17:57.631Z,66.17
2022-12-18T10:18:57.620Z,65.13
2022-12-18T10:19:57.625Z,64.40
2022-12-18T10:20:57.578Z,64.27
2022-12-18T10:21:57.588Z,64.37
2022-12-18T10:22:57.568Z,64.27
2022-12-18T10:23:57.546Z,64.19
2022-12-18T10:24:57.531Z,65.13
2022-12-18T10:25:57.530Z,64.48
2022-12-18T10:26:57.507Z,63.54
2022-12-18T10:27:57.506Z,64.03
2022-12-18T10:29:02.083Z,64.11
2022-12-18T10:29:57.502Z,63.97
2022-12-18T10:30:57.487Z,62.55
2022-12-18T10:31:57.492Z,62.10
2022-12-18T10:32:57.457Z,61.97
2022-12-18T10:33:57.447Z,60.62
2022-12-18T10:35:00.553Z,61.45
2022-12-18T10:35:57.432Z,60.91
2022-12-18T10:36:57.397Z,61.53
2022-12-18T10:37:57.389Z,60.46
2022-12-18T10:38:57.394Z,59.97
2022-12-18T10:39:57.405Z,60.05
2022-12-18T10:40:57.352Z,59.53
2022-12-18T10:41:57.347Z,58.83
2022-12-18T10:42:57.352Z,60.28
2022-12-18T10:43:57.312Z,60.24
2022-12-18T10:44:57.325Z,60.31
2022-12-18T10:45:57.381Z,60.52
2022-12-18T10:46:57.415Z,60.44
2022-12-18T10:47:57.268Z,60.91
2022-12-18T10:48:57.263Z,58.80
2022-12-18T10:49:57.299Z,58.18
2022-12-18T10:51:12.350Z,58.70
2022-12-18T10:51:57.241Z,58.73
2022-12-18T10:52:57.222Z,59.58
2022-12-18T10:53:57.201Z,59.48
2022-12-18T10:54:57.227Z,60.44
2022-12-18T10:55:57.186Z,60.44
2022-12-18T10:56:57.201Z,59.82
2022-12-18T10:57:57.157Z,60.24
2022-12-18T10:58:57.184Z,60.34
2022-12-18T10:59:57.152Z,60.55
2022-12-18T11:00:57.173Z,60.86
2022-12-18T11:01:57.323Z,59.92
2022-12-18T11:02:57.338Z,59.82
2022-12-18T11:04:01.846Z,60.05
2022-12-18T11:04:57.093Z,60.36
2022-12-18T11:05:57.179Z,61.25
2022-12-18T11:06:57.085Z,62.74
2022-12-18T11:07:57.075Z,62.40
2022-12-18T11:08:57.078Z,61.77
2022-12-18T11:09:57.084Z,61.74
2022-12-18T11:10:57.025Z,60.60
2022-12-18T11:11:57.020Z,60.52
2022-12-18T11:12:57.000Z,60.83
2022-12-18T11:13:56.998Z,61.02
2022-12-18T11:14:56.995Z,60.71
2022-12-18T11:15:56.975Z,60.36
2022-12-18T11:17:24.282Z,60.78
2022-12-18T11:17:56.963Z,60.03
2022-12-18T11:18:56.931Z,59.17
2022-12-18T11:19:56.959Z,59.19
2022-12-18T11:20:58.775Z,60.31
2022-12-18T11:21:56.920Z,61.15
2022-12-18T11:22:56.902Z,61.15
2022-12-18T11:23:56.892Z,60.81
2022-12-18T11:25:30.051Z,60.63
2022-12-18T11:25:56.904Z,60.73
2022-12-18T11:26:59.865Z,60.83
2022-12-18T11:27:56.836Z,60.86
2022-12-18T11:28:56.850Z,61.49
2022-12-18T11:29:56.831Z,62.11
2022-12-18T11:30:56.902Z,61.93
2022-12-18T11:31:56.793Z,62.32
2022-12-18T11:32:56.803Z,62.60
2022-12-18T11:34:26.987Z,61.57
2022-12-18T11:34:59.138Z,61.59
2022-12-18T11:35:56.782Z,61.59
2022-12-18T11:36:56.777Z,62.11
2022-12-18T11:37:56.765Z,62.43
2022-12-18T11:38:56.705Z,62.04
2022-12-18T11:39:56.698Z,62.55
2022-12-18T11:40:56.828Z,63.21
2022-12-18T11:41:56.681Z,63.63
2022-12-18T11:42:56.680Z,63.63
2022-12-18T11:43:56.674Z,63.24
2022-12-18T11:44:56.650Z,63.79
2022-12-18T11:45:56.663Z,64.97
2022-12-18T11:46:56.717Z,65.04
2022-12-18T11:47:56.636Z,64.59
2022-12-18T11:48:56.638Z,64.07
2022-12-18T11:49:56.603Z,64.31
2022-12-18T11:51:03.105Z,64.73
2022-12-18T11:51:56.585Z,65.04
2022-12-18T11:53:00.340Z,65.17
2022-12-18T11:53:56.559Z,65.46
2022-12-18T11:54:56.535Z,65.56
2022-12-18T11:55:56.540Z,65.25
2022-12-18T11:56:56.509Z,64.86
2022-12-18T11:57:56.535Z,65.38
2022-12-18T11:58:56.497Z,65.59
2022-12-18T11:59:56.473Z,66.35
2022-12-18T12:00:56.462Z,67.19
2022-12-18T12:01:56.584Z,67.40
2022-12-18T12:02:56.551Z,67.19
2022-12-18T12:03:56.524Z,67.19
2022-12-18T12:04:56.446Z,67.43
2022-12-18T12:05:56.450Z,67.88
2022-12-18T12:07:01.454Z,68.71
2022-12-18T12:07:56.466Z,68.71
2022-12-18T12:08:56.413Z,68.82
2022-12-18T12:09:56.363Z,68.82
2022-12-18T12:11:02.962Z,68.71
2022-12-18T12:11:56.355Z,68.71
2022-12-18T12:12:56.340Z,69.02
2022-12-18T12:13:56.356Z,68.71
2022-12-18T12:14:56.340Z,69.23
2022-12-18T12:15:56.412Z,69.06
2022-12-18T12:16:56.320Z,69.68
2022-12-18T12:17:56.320Z,69.61
2022-12-18T12:18:56.274Z,70.13
2022-12-18T12:19:56.278Z,70.41
2022-12-18T12:20:56.257Z,70.24
2022-12-18T12:21:56.242Z,70.73
2022-12-18T12:22:56.248Z,70.52
2022-12-18T12:23:56.215Z,69.96
2022-12-18T12:24:56.188Z,69.79
2022-12-18T12:25:56.219Z,70.24
2022-12-18T12:26:56.185Z,70.97
2022-12-18T12:27:56.200Z,70.83
2022-12-18T12:28:56.864Z,70.31
2022-12-18T12:29:56.142Z,69.40
2022-12-18T12:30:56.137Z,69.58
2022-12-18T12:31:56.180Z,69.82
2022-12-18T12:32:56.122Z,69.82
2022-12-18T12:33:56.108Z,70.03
2022-12-18T12:35:00.283Z,70.24
2022-12-18T12:35:56.090Z,70.24
2022-12-18T12:36:56.063Z,70.31
2022-12-18T12:37:56.067Z,69.92
2022-12-18T12:38:56.097Z,70.45
2022-12-18T12:39:56.035Z,71.08
2022-12-18T12:41:02.398Z,71.08
2022-12-18T12:41:56.018Z,71.39
2022-12-18T12:42:56.004Z,71.49
2022-12-18T12:43:56.055Z,71.18
2022-12-18T12:44:57.041Z,70.76
2022-12-18T12:45:56.009Z,70.65
2022-12-18T12:46:55.975Z,70.65
2022-12-18T12:47:56.198Z,70.86
2022-12-18T12:48:55.949Z,71.08
2022-12-18T12:49:56.096Z,71.04
2022-12-18T12:50:55.905Z,70.41
2022-12-18T12:51:55.867Z,70.41
2022-12-18T12:52:55.886Z,70.52